createdAt,value
2022-08-22T00:00:31.146Z,59.97
2022-08-22T00:01:31.139Z,58.73
2022-08-22T00:02:31.200Z,63.06
2022-08-22T00:02:44.823Z,65.24
2022-08-22T00:02:54.176Z,63.39
2022-08-22T00:02:56.790Z,66.05
2022-08-22T00:03:00.025Z,66.23
2022-08-22T00:03:09.767Z,64.05
2022-08-22T00:03:12.559Z,59.18
2022-08-22T00:03:31.222Z,61.84
2022-08-22T00:04:33.969Z,66.44
2022-08-22T00:05:31.091Z,64.35
2022-08-22T00:06:31.151Z,64.84
2022-08-22T00:07:31.074Z,61.41
2022-08-22T00:08:31.078Z,60.36
2022-08-22T00:09:31.049Z,64.89
2022-08-22T00:10:31.058Z,64.55
2022-08-22T00:11:31.872Z,62.58
2022-08-22T00:12:31.025Z,62.16
2022-08-22T00:13:31.053Z,64.43
2022-08-22T00:14:31.008Z,61.03
2022-08-22T00:15:42.625Z,62.23
2022-08-22T00:16:31.987Z,64.97
2022-08-22T00:17:30.976Z,65.80
2022-08-22T00:18:30.993Z,64.16
2022-08-22T00:19:30.958Z,63.63
2022-08-22T00:20:30.944Z,62.44
2022-08-22T00:21:30.936Z,62.87
2022-08-22T00:22:30.926Z,63.63
2022-08-22T00:23:30.919Z,63.11
2022-08-22T00:24:30.926Z,61.54
2022-08-22T00:25:30.899Z,66.92
2022-08-22T00:26:30.891Z,62.30
2022-08-22T00:27:30.878Z,61.53
2022-08-22T00:28:30.880Z,63.47
2022-08-22T00:29:30.872Z,63.28
2022-08-22T00:30:30.850Z,59.01
2022-08-22T00:31:30.842Z,63.22
2022-08-22T00:32:30.831Z,61.01
2022-08-22T00:33:30.816Z,61.69
2022-08-22T00:34:30.840Z,64.78
2022-08-22T00:35:30.803Z,64.33
2022-08-22T00:36:30.806Z,62.36
2022-08-22T00:37:30.785Z,63.68
2022-08-22T00:38:30.770Z,62.61
2022-08-22T00:39:30.792Z,61.85
2022-08-22T00:40:30.751Z,64.15
2022-08-22T00:41:30.738Z,64.48
2022-08-22T00:42:32.112Z,61.94
2022-08-22T00:43:30.709Z,63.21
2022-08-22T00:44:30.711Z,61.23
2022-08-22T00:45:30.715Z,57.60
2022-08-22T00:46:30.695Z,64.12
2022-08-22T00:47:30.686Z,64.08
2022-08-22T00:48:30.672Z,65.84
2022-08-22T00:49:30.705Z,63.33
2022-08-22T00:50:30.668Z,59.68
2022-08-22T00:51:30.641Z,65.19
2022-08-22T00:52:30.635Z,64.61
2022-08-22T00:53:30.673Z,61.84
2022-08-22T00:54:30.614Z,63.07
2022-08-22T00:55:33.891Z,64.49
2022-08-22T00:56:30.591Z,64.45
2022-08-22T00:57:30.589Z,62.44
2022-08-22T00:58:30.574Z,63.23
2022-08-22T00:59:30.563Z,62.83
2022-08-22T01:00:30.581Z,63.30
2022-08-22T01:01:30.562Z,64.35
2022-08-22T01:02:30.532Z,62.95
2022-08-22T01:03:30.528Z,61.06
2022-08-22T01:04:30.517Z,64.25
2022-08-22T01:05:30.502Z,63.20
2022-08-22T01:06:30.511Z,64.84
2022-08-22T01:07:37.857Z,66.44
2022-08-22T01:08:31.472Z,63.23
2022-08-22T01:09:30.467Z,61.62
2022-08-22T01:10:30.453Z,65.60
2022-08-22T01:11:30.461Z,67.96
2022-08-22T01:12:30.438Z,63.13
2022-08-22T01:13:30.431Z,63.90
2022-08-22T01:14:34.585Z,63.89
2022-08-22T01:15:30.406Z,65.45
2022-08-22T01:16:30.425Z,62.98
2022-08-22T01:17:30.386Z,65.19
2022-08-22T01:18:30.376Z,64.99
2022-08-22T01:19:30.366Z,62.57
2022-08-22T01:20:30.356Z,66.80
2022-08-22T01:21:30.379Z,65.92
2022-08-22T01:22:30.348Z,68.59
2022-08-22T01:23:30.331Z,64.00
2022-08-22T01:24:30.320Z,58.20
2022-08-22T01:25:30.312Z,69.15
2022-08-22T01:26:30.298Z,67.70
2022-08-22T01:27:30.311Z,61.92
2022-08-22T01:28:30.280Z,61.24
2022-08-22T01:29:30.273Z,64.93
2022-08-22T01:30:30.260Z,63.99
2022-08-22T01:31:30.252Z,63.20
2022-08-22T01:32:30.261Z,65.90
2022-08-22T01:33:30.232Z,65.29
2022-08-22T01:34:30.219Z,64.21
2022-08-22T01:35:30.207Z,61.67
2022-08-22T01:36:30.204Z,65.21
2022-08-22T01:37:30.227Z,64.65
2022-08-22T01:38:30.183Z,68.76
2022-08-22T01:39:30.173Z,66.42
2022-08-22T01:40:30.196Z,65.77
2022-08-22T01:41:31.154Z,65.81
2022-08-22T01:42:30.186Z,64.20
2022-08-22T01:43:58.975Z,64.39
2022-08-22T01:44:31.127Z,62.35
2022-08-22T01:45:30.118Z,68.88
2022-08-22T01:46:30.102Z,63.58
2022-08-22T01:47:30.921Z,63.29
2022-08-22T01:48:31.106Z,62.43
2022-08-22T01:49:30.077Z,63.12
2022-08-22T01:50:30.067Z,65.57
2022-08-22T01:51:30.056Z,65.93
2022-08-22T01:52:30.044Z,65.71
2022-08-22T01:53:30.050Z,64.04
2022-08-22T01:54:30.026Z,68.68
2022-08-22T01:55:30.018Z,65.43
2022-08-22T01:56:30.005Z,67.13
2022-08-22T01:57:30.000Z,63.07
2022-08-22T01:58:30.063Z,64.29
2022-08-22T01:59:34.109Z,68.76
2022-08-22T02:00:35.513Z,65.91
2022-08-22T02:01:30.959Z,64.02
2022-08-22T02:03:01.845Z,65.72
2022-08-22T02:03:29.970Z,68.85
2022-08-22T02:04:29.927Z,68.59
2022-08-22T02:05:29.907Z,66.71
2022-08-22T02:06:30.912Z,66.14
2022-08-22T02:07:32.135Z,64.05
2022-08-22T02:08:29.883Z,64.09
2022-08-22T02:09:30.894Z,65.04
2022-08-22T02:10:29.871Z,66.96
2022-08-22T02:11:29.865Z,64.08
2022-08-22T02:12:29.852Z,67.92
2022-08-22T02:13:29.840Z,65.98
2022-08-22T02:14:29.864Z,62.51
2022-08-22T02:15:29.826Z,63.84
2022-08-22T02:16:29.813Z,66.48
2022-08-22T02:17:29.801Z,68.85
2022-08-22T02:18:29.797Z,70.31
2022-08-22T02:19:29.815Z,62.36
2022-08-22T02:20:29.778Z,63.96
2022-08-22T02:21:29.768Z,64.75
2022-08-22T02:22:29.759Z,65.70
2022-08-22T02:23:29.747Z,68.77
2022-08-22T02:24:29.738Z,65.94
2022-08-22T02:25:29.748Z,67.10
2022-08-22T02:26:29.719Z,68.42
2022-08-22T02:27:31.365Z,61.83
2022-08-22T02:28:29.699Z,64.44
2022-08-22T02:29:29.688Z,66.98
2022-08-22T02:30:29.709Z,63.54
2022-08-22T02:31:29.665Z,65.04
2022-08-22T02:32:29.664Z,64.58
2022-08-22T02:33:29.656Z,61.37
2022-08-22T02:34:29.645Z,65.54
2022-08-22T02:35:29.676Z,65.94
2022-08-22T02:36:29.625Z,64.19
2022-08-22T02:37:29.613Z,66.99
2022-08-22T02:38:29.604Z,64.53
2022-08-22T02:39:29.598Z,66.62
2022-08-22T02:40:29.583Z,67.74
2022-08-22T02:41:30.928Z,66.00
2022-08-22T02:42:29.566Z,68.31
2022-08-22T02:43:29.557Z,65.51
2022-08-22T02:44:29.550Z,67.37
2022-08-22T02:45:29.540Z,65.09
2022-08-22T02:46:29.571Z,63.94
2022-08-22T02:47:29.518Z,65.25
2022-08-22T02:48:29.508Z,64.39
2022-08-22T02:49:29.502Z,68.45
2022-08-22T02:50:29.488Z,68.86
2022-08-22T02:51:29.536Z,66.16
2022-08-22T02:52:29.495Z,65.60
2022-08-22T02:53:29.459Z,65.29
2022-08-22T02:54:29.448Z,67.40
2022-08-22T02:55:29.438Z,62.92
2022-08-22T02:56:29.428Z,66.46
2022-08-22T02:57:29.435Z,69.25
2022-08-22T02:58:29.407Z,66.24
2022-08-22T02:59:29.395Z,68.86
2022-08-22T03:00:32.725Z,66.21
2022-08-22T03:01:29.380Z,68.86
2022-08-22T03:02:29.384Z,65.04
2022-08-22T03:03:29.366Z,66.47
2022-08-22T03:04:29.352Z,67.10
2022-08-22T03:05:29.344Z,66.87
2022-08-22T03:06:29.337Z,65.31
2022-08-22T03:07:29.340Z,65.90
2022-08-22T03:08:29.386Z,68.79
2022-08-22T03:09:29.306Z,67.34
2022-08-22T03:10:29.293Z,67.56
2022-08-22T03:11:29.289Z,65.62
2022-08-22T03:12:29.321Z,67.57
2022-08-22T03:13:29.269Z,68.73
2022-08-22T03:14:29.262Z,69.46
2022-08-22T03:15:29.249Z,67.94
2022-08-22T03:16:29.241Z,66.40
2022-08-22T03:17:29.265Z,68.14
2022-08-22T03:18:29.223Z,68.65
2022-08-22T03:19:29.207Z,67.32
2022-08-22T03:20:29.227Z,67.21
2022-08-22T03:21:29.192Z,67.95
2022-08-22T03:22:29.180Z,66.46
2022-08-22T03:23:29.194Z,65.38
2022-08-22T03:24:29.162Z,68.61
2022-08-22T03:25:29.156Z,68.38
2022-08-22T03:26:29.146Z,68.20
2022-08-22T03:27:32.410Z,67.79
2022-08-22T03:28:29.142Z,67.76
2022-08-22T03:29:29.117Z,66.65
2022-08-22T03:30:29.103Z,67.55
2022-08-22T03:31:29.095Z,68.19
2022-08-22T03:32:29.085Z,68.09
2022-08-22T03:33:29.091Z,67.82
2022-08-22T03:34:29.069Z,68.22
2022-08-22T03:35:29.056Z,68.04
2022-08-22T03:36:29.049Z,69.15
2022-08-22T03:37:29.038Z,66.83
2022-08-22T03:38:29.043Z,69.57
2022-08-22T03:39:29.022Z,69.12
2022-08-22T03:40:31.451Z,66.25
2022-08-22T03:41:28.999Z,65.54
2022-08-22T03:42:28.993Z,68.17
2022-08-22T03:43:29.001Z,68.94
2022-08-22T03:44:28.968Z,69.96
2022-08-22T03:45:28.950Z,68.90
2022-08-22T03:46:29.948Z,68.75
2022-08-22T03:47:28.936Z,66.92
2022-08-22T03:48:28.948Z,70.41
2022-08-22T03:49:28.921Z,68.92
2022-08-22T03:50:28.910Z,69.43
2022-08-22T03:51:28.894Z,68.77
2022-08-22T03:52:29.891Z,66.49
2022-08-22T03:53:28.929Z,70.49
2022-08-22T03:54:30.491Z,70.80
2022-08-22T03:55:28.863Z,67.83
2022-08-22T03:56:28.883Z,70.12
2022-08-22T03:57:28.835Z,70.45
2022-08-22T03:58:28.856Z,68.90
2022-08-22T03:59:28.817Z,69.27
2022-08-22T04:00:28.875Z,67.66
2022-08-22T04:01:28.800Z,71.00
2022-08-22T04:02:43.652Z,70.52
2022-08-22T04:03:29.820Z,70.34
2022-08-22T04:04:28.768Z,69.09
2022-08-22T04:05:28.756Z,70.58
2022-08-22T04:06:28.747Z,69.86
2022-08-22T04:07:32.400Z,70.27
2022-08-22T04:08:28.729Z,68.03
2022-08-22T04:09:29.183Z,70.16
2022-08-22T04:10:28.711Z,69.36
2022-08-22T04:11:28.697Z,67.92
2022-08-22T04:12:28.712Z,67.02
2022-08-22T04:13:28.680Z,68.07
2022-08-22T04:14:28.684Z,69.82
2022-08-22T04:15:28.658Z,70.77
2022-08-22T04:16:28.654Z,71.23
2022-08-22T04:17:28.637Z,70.44
2022-08-22T04:18:28.628Z,72.00
2022-08-22T04:19:28.646Z,70.76
2022-08-22T04:20:28.608Z,71.68
2022-08-22T04:21:28.597Z,70.67
2022-08-22T04:22:28.587Z,69.61
2022-08-22T04:23:28.679Z,68.15
2022-08-22T04:24:28.609Z,69.23
2022-08-22T04:25:28.556Z,70.11
2022-08-22T04:26:28.556Z,69.92
2022-08-22T04:27:28.537Z,69.63
2022-08-22T04:28:28.528Z,69.72
2022-08-22T04:29:28.517Z,70.08
2022-08-22T04:30:28.520Z,71.80
2022-08-22T04:31:28.492Z,70.72
2022-08-22T04:32:28.485Z,70.46
2022-08-22T04:33:28.475Z,68.82
2022-08-22T04:34:28.464Z,69.32
2022-08-22T04:35:28.469Z,70.27
2022-08-22T04:36:28.447Z,71.82
2022-08-22T04:37:28.438Z,69.64
2022-08-22T04:38:28.426Z,71.60
2022-08-22T04:39:28.420Z,69.97
2022-08-22T04:40:28.435Z,70.04
2022-08-22T04:41:28.398Z,70.63
2022-08-22T04:42:32.806Z,70.41
2022-08-22T04:43:29.382Z,71.64
2022-08-22T04:44:28.366Z,71.14
2022-08-22T04:45:28.394Z,69.35
2022-08-22T04:46:36.653Z,71.50
2022-08-22T04:47:29.342Z,71.07
2022-08-22T04:48:28.328Z,69.74
2022-08-22T04:49:28.318Z,70.62
2022-08-22T04:50:28.310Z,70.21
2022-08-22T04:51:28.315Z,71.56
2022-08-22T04:52:29.556Z,70.70
2022-08-22T04:53:28.281Z,73.32
2022-08-22T04:54:28.268Z,71.13
2022-08-22T04:55:28.256Z,70.93
2022-08-22T04:56:28.263Z,69.57
2022-08-22T04:57:28.244Z,70.98
2022-08-22T04:58:28.225Z,71.01
2022-08-22T04:59:28.220Z,69.84
2022-08-22T05:00:28.224Z,70.99
2022-08-22T05:01:28.255Z,70.94
2022-08-22T05:02:28.191Z,69.86
2022-08-22T05:03:28.172Z,69.75
2022-08-22T05:04:29.170Z,72.12
2022-08-22T05:05:28.185Z,72.60
2022-08-22T05:06:28.179Z,69.81
2022-08-22T05:07:28.138Z,71.51
2022-08-22T05:08:29.130Z,69.81
2022-08-22T05:09:28.120Z,70.64
2022-08-22T05:10:28.113Z,67.06
2022-08-22T05:11:28.129Z,68.20
2022-08-22T05:12:30.068Z,69.91
2022-08-22T05:13:28.082Z,70.30
2022-08-22T05:14:28.072Z,70.34
2022-08-22T05:15:28.081Z,69.35
2022-08-22T05:16:28.052Z,70.47
2022-08-22T05:17:28.056Z,71.13
2022-08-22T05:18:29.626Z,70.09
2022-08-22T05:19:31.913Z,70.43
2022-08-22T05:20:29.018Z,70.20
2022-08-22T05:21:28.004Z,70.92
2022-08-22T05:22:28.011Z,68.66
2022-08-22T05:23:27.983Z,67.60
2022-08-22T05:24:28.278Z,67.67
2022-08-22T05:25:27.961Z,69.10
2022-08-22T05:26:27.953Z,68.43
2022-08-22T05:27:27.956Z,68.27
2022-08-22T05:28:27.934Z,68.11
2022-08-22T05:29:27.922Z,67.26
2022-08-22T05:30:27.913Z,67.37
2022-08-22T05:31:27.898Z,66.73
2022-08-22T05:32:27.916Z,67.95
2022-08-22T05:33:27.881Z,67.30
2022-08-22T05:34:27.873Z,66.57
2022-08-22T05:35:27.859Z,65.77
2022-08-22T05:36:27.877Z,64.67
2022-08-22T05:37:27.879Z,68.63
2022-08-22T05:38:27.835Z,67.92
2022-08-22T05:39:28.024Z,67.42
2022-08-22T05:40:27.816Z,67.94
2022-08-22T05:41:27.799Z,66.98
2022-08-22T05:42:27.821Z,68.92
2022-08-22T05:43:27.780Z,68.32
2022-08-22T05:44:27.774Z,69.58
2022-08-22T05:45:27.761Z,67.63
2022-08-22T05:46:27.756Z,66.92
2022-08-22T05:47:27.746Z,65.78
2022-08-22T05:48:27.753Z,69.10
2022-08-22T05:49:27.726Z,69.02
2022-08-22T05:50:27.713Z,68.49
2022-08-22T05:51:27.704Z,69.66
2022-08-22T05:52:27.697Z,68.12
2022-08-22T05:53:27.705Z,66.54
2022-08-22T05:54:34.493Z,67.01
2022-08-22T05:55:28.666Z,67.99
2022-08-22T05:56:27.656Z,66.43
2022-08-22T05:57:27.648Z,66.81
2022-08-22T05:58:27.649Z,65.64
2022-08-22T05:59:27.625Z,68.87
2022-08-22T06:00:27.614Z,66.99
2022-08-22T06:01:27.642Z,64.88
2022-08-22T06:02:27.616Z,64.37
2022-08-22T06:03:27.609Z,67.96
2022-08-22T06:04:27.581Z,66.29
2022-08-22T06:05:27.565Z,65.95
2022-08-22T06:06:27.559Z,68.37
2022-08-22T06:07:27.553Z,67.28
2022-08-22T06:08:27.569Z,65.60
2022-08-22T06:09:34.936Z,67.46
2022-08-22T06:10:28.517Z,66.23
2022-08-22T06:11:33.668Z,67.16
2022-08-22T06:12:28.526Z,65.46
2022-08-22T06:13:27.506Z,66.49
2022-08-22T06:14:27.483Z,67.52
2022-08-22T06:15:27.472Z,67.05
2022-08-22T06:16:27.464Z,67.46
2022-08-22T06:17:27.455Z,67.17
2022-08-22T06:18:27.461Z,67.50
2022-08-22T06:19:27.437Z,67.23
2022-08-22T06:20:28.787Z,66.71
2022-08-22T06:21:27.473Z,66.80
2022-08-22T06:22:27.582Z,66.08
2022-08-22T06:23:27.440Z,67.47
2022-08-22T06:24:27.397Z,66.30
2022-08-22T06:25:27.385Z,66.76
2022-08-22T06:26:27.369Z,66.37
2022-08-22T06:27:27.363Z,65.76
2022-08-22T06:28:27.383Z,64.86
2022-08-22T06:29:27.346Z,67.58
2022-08-22T06:30:27.431Z,65.39
2022-08-22T06:31:27.323Z,65.71
2022-08-22T06:32:31.546Z,66.82
2022-08-22T06:33:28.335Z,65.76
2022-08-22T06:34:27.297Z,67.00
2022-08-22T06:35:27.287Z,65.68
2022-08-22T06:36:27.276Z,64.98
2022-08-22T06:37:27.266Z,67.01
2022-08-22T06:38:27.257Z,66.56
2022-08-22T06:39:27.264Z,66.68
2022-08-22T06:40:27.311Z,66.05
2022-08-22T06:41:27.227Z,66.53
2022-08-22T06:42:27.214Z,66.49
2022-08-22T06:43:27.211Z,68.21
2022-08-22T06:44:27.210Z,67.83
2022-08-22T06:45:27.188Z,67.89
2022-08-22T06:46:27.188Z,67.94
2022-08-22T06:47:27.170Z,67.21
2022-08-22T06:48:27.155Z,65.32
2022-08-22T06:49:27.167Z,67.34
2022-08-22T06:50:27.145Z,68.12
2022-08-22T06:51:27.130Z,67.05
2022-08-22T06:52:27.126Z,65.86
2022-08-22T06:53:27.112Z,66.58
2022-08-22T06:54:29.440Z,65.63
2022-08-22T06:55:27.092Z,66.02
2022-08-22T06:56:27.099Z,65.09
2022-08-22T06:57:27.071Z,66.89
2022-08-22T06:58:27.063Z,66.42
2022-08-22T06:59:27.078Z,64.82
2022-08-22T07:00:27.051Z,66.54
2022-08-22T07:01:27.134Z,65.38
2022-08-22T07:02:27.021Z,64.70
2022-08-22T07:03:27.012Z,66.40
2022-08-22T07:04:27.018Z,64.91
2022-08-22T07:05:27.006Z,63.83
2022-08-22T07:06:26.982Z,61.83
2022-08-22T07:07:26.972Z,62.93
2022-08-22T07:08:26.962Z,63.78
2022-08-22T07:09:26.967Z,63.95
2022-08-22T07:10:26.957Z,64.92
2022-08-22T07:11:26.931Z,63.64
2022-08-22T07:12:26.918Z,63.68
2022-08-22T07:13:26.911Z,64.55
2022-08-22T07:14:26.941Z,64.70
2022-08-22T07:15:26.893Z,65.84
2022-08-22T07:16:26.888Z,64.73
2022-08-22T07:17:26.873Z,66.56
2022-08-22T07:18:26.860Z,63.93
2022-08-22T07:19:26.886Z,66.16
2022-08-22T07:20:26.973Z,66.34
2022-08-22T07:21:26.836Z,64.91
2022-08-22T07:22:26.824Z,65.58
2022-08-22T07:23:26.811Z,67.12
2022-08-22T07:24:26.821Z,64.81
2022-08-22T07:25:26.813Z,64.28
2022-08-22T07:26:26.786Z,64.55
2022-08-22T07:27:26.780Z,64.62
2022-08-22T07:28:36.518Z,65.41
2022-08-22T07:29:27.768Z,64.45
2022-08-22T07:30:27.835Z,66.07
2022-08-22T07:31:26.741Z,67.51
2022-08-22T07:32:26.730Z,65.30
2022-08-22T07:33:27.281Z,65.44
2022-08-22T07:34:26.709Z,65.16
2022-08-22T07:35:26.715Z,66.10
2022-08-22T07:36:31.436Z,65.09
2022-08-22T07:37:28.682Z,66.64
2022-08-22T07:38:26.670Z,64.78
2022-08-22T07:39:26.663Z,65.12
2022-08-22T07:40:26.760Z,65.83
2022-08-22T07:41:26.639Z,66.74
2022-08-22T07:42:30.106Z,65.01
2022-08-22T07:43:27.619Z,65.35
2022-08-22T07:44:26.612Z,64.68
2022-08-22T07:45:26.619Z,64.09
2022-08-22T07:46:26.592Z,66.11
2022-08-22T07:47:26.813Z,64.43
2022-08-22T07:48:26.647Z,65.38
2022-08-22T07:49:26.571Z,63.75
2022-08-22T07:50:26.586Z,63.27
2022-08-22T07:51:26.549Z,66.67
2022-08-22T07:52:26.534Z,65.84
2022-08-22T07:53:26.531Z,66.92
2022-08-22T07:54:27.329Z,65.79
2022-08-22T07:55:26.544Z,66.00
2022-08-22T07:56:26.509Z,65.61
2022-08-22T07:57:26.488Z,64.53
2022-08-22T07:58:26.478Z,65.67
2022-08-22T07:59:26.466Z,66.18
2022-08-22T08:00:26.463Z,65.78
2022-08-22T08:01:26.494Z,68.31
2022-08-22T08:02:58.336Z,67.24
2022-08-22T08:03:26.439Z,65.39
2022-08-22T08:04:26.425Z,65.18
2022-08-22T08:05:26.416Z,66.46
2022-08-22T08:06:26.424Z,67.08
2022-08-22T08:07:26.397Z,65.89
2022-08-22T08:08:26.385Z,65.91
2022-08-22T08:09:26.373Z,65.77
2022-08-22T08:10:26.369Z,64.78
2022-08-22T08:11:26.374Z,66.23
2022-08-22T08:12:26.349Z,66.08
2022-08-22T08:13:26.339Z,65.36
2022-08-22T08:14:26.329Z,67.64
2022-08-22T08:15:26.942Z,66.75
2022-08-22T08:16:26.357Z,67.07
2022-08-22T08:17:30.136Z,66.73
2022-08-22T08:18:28.293Z,66.13
2022-08-22T08:19:26.279Z,68.83
2022-08-22T08:20:26.270Z,67.18
2022-08-22T08:21:26.288Z,65.91
2022-08-22T08:22:26.251Z,66.57
2022-08-22T08:23:26.241Z,64.16
2022-08-22T08:24:26.234Z,65.16
2022-08-22T08:25:26.219Z,65.82
2022-08-22T08:26:26.209Z,64.92
2022-08-22T08:27:26.217Z,64.51
2022-08-22T08:28:26.195Z,66.93
2022-08-22T08:29:26.181Z,66.03
2022-08-22T08:30:26.181Z,67.59
2022-08-22T08:31:26.167Z,65.73
2022-08-22T08:32:26.169Z,64.53
2022-08-22T08:33:26.891Z,63.11
2022-08-22T08:34:27.119Z,64.61
2022-08-22T08:35:27.125Z,67.68
2022-08-22T08:36:26.113Z,65.34
2022-08-22T08:37:26.136Z,67.89
2022-08-22T08:38:26.099Z,69.16
2022-08-22T08:39:26.089Z,67.53
2022-08-22T08:40:27.075Z,67.43
2022-08-22T08:41:26.067Z,66.76
2022-08-22T08:42:26.087Z,67.08
2022-08-22T08:43:26.043Z,64.42
2022-08-22T08:44:26.044Z,64.64
2022-08-22T08:45:26.031Z,65.33
2022-08-22T08:46:26.256Z,63.50
2022-08-22T08:47:26.008Z,64.99
2022-08-22T08:48:26.033Z,63.31
2022-08-22T08:49:25.988Z,63.91
2022-08-22T08:50:25.981Z,63.48
2022-08-22T08:51:25.964Z,63.47
2022-08-22T08:52:25.968Z,64.97
2022-08-22T08:53:25.967Z,64.36
2022-08-22T08:54:25.930Z,62.98
2022-08-22T08:55:26.929Z,65.20
2022-08-22T08:56:25.921Z,63.07
2022-08-22T08:57:25.908Z,64.83
2022-08-22T08:58:25.929Z,64.39
2022-08-22T08:59:25.890Z,64.92
2022-08-22T09:01:27.547Z,62.31
2022-08-22T09:02:25.868Z,64.25
2022-08-22T09:03:30.939Z,65.33
2022-08-22T09:04:26.849Z,64.66
2022-08-22T09:05:25.842Z,65.73
2022-08-22T09:06:25.831Z,64.83
2022-08-22T09:07:25.817Z,66.25
2022-08-22T09:08:27.611Z,64.48
2022-08-22T09:09:25.812Z,65.39
2022-08-22T09:10:27.365Z,64.35
2022-08-22T09:12:26.766Z,64.20
2022-08-22T09:13:25.749Z,64.23
2022-08-22T09:14:26.320Z,64.46
2022-08-22T09:15:25.739Z,65.90
2022-08-22T09:16:25.730Z,64.76
2022-08-22T09:17:25.719Z,64.00
2022-08-22T09:18:25.711Z,65.01
2022-08-22T09:19:25.717Z,63.46
2022-08-22T09:20:25.693Z,64.11
2022-08-22T09:21:30.723Z,63.94
2022-08-22T09:22:26.675Z,66.07
2022-08-22T09:23:26.661Z,66.78
2022-08-22T09:24:25.664Z,65.27
2022-08-22T09:25:25.646Z,65.69
2022-08-22T09:26:25.634Z,64.18
2022-08-22T09:27:25.620Z,62.83
2022-08-22T09:28:28.360Z,63.34
2022-08-22T09:29:25.617Z,64.78
2022-08-22T09:30:28.880Z,62.07
2022-08-22T09:31:33.222Z,62.15
2022-08-22T09:32:26.590Z,65.28
2022-08-22T09:33:28.164Z,64.11
2022-08-22T09:34:25.630Z,65.03
2022-08-22T09:35:25.543Z,64.35
2022-08-22T09:36:25.534Z,66.62
2022-08-22T09:37:25.535Z,65.15
2022-08-22T09:38:25.515Z,64.96
2022-08-22T09:39:25.566Z,62.64
2022-08-22T09:41:25.491Z,65.79
2022-08-22T09:42:25.480Z,63.97
2022-08-22T09:43:25.470Z,63.45
2022-08-22T09:44:25.468Z,61.76
2022-08-22T09:45:25.476Z,61.88
2022-08-22T09:46:32.009Z,65.56
2022-08-22T09:47:26.425Z,65.44
2022-08-22T09:48:26.594Z,65.56
2022-08-22T09:49:25.410Z,62.95
2022-08-22T09:50:25.427Z,63.24
2022-08-22T09:51:33.078Z,63.73
2022-08-22T09:52:33.224Z,59.52
2022-08-22T09:53:26.372Z,64.05
2022-08-22T09:54:31.691Z,62.68
2022-08-22T09:55:30.584Z,63.82
2022-08-22T09:56:26.346Z,63.67
2022-08-22T09:57:25.338Z,62.04
2022-08-22T09:58:25.328Z,60.58
2022-08-22T09:59:25.315Z,62.43
2022-08-22T10:00:25.764Z,63.58
2022-08-22T10:01:25.426Z,64.59
2022-08-22T10:02:26.287Z,61.66
2022-08-22T10:03:25.280Z,62.33
2022-08-22T10:04:25.271Z,62.59
2022-08-22T10:05:40.912Z,61.79
2022-08-22T10:06:26.306Z,63.46
2022-08-22T10:07:25.242Z,63.36
2022-08-22T10:08:26.510Z,63.66
2022-08-22T10:09:31.493Z,65.10
2022-08-22T10:10:27.211Z,62.20
2022-08-22T10:11:25.202Z,61.95
2022-08-22T10:12:25.221Z,63.27
2022-08-22T10:13:25.181Z,62.51
2022-08-22T10:14:25.174Z,62.09
2022-08-22T10:15:25.163Z,61.38
2022-08-22T10:16:25.182Z,63.66
2022-08-22T10:17:25.189Z,64.71
2022-08-22T10:18:26.189Z,61.50
2022-08-22T10:19:25.128Z,63.06
2022-08-22T10:20:25.113Z,62.29
2022-08-22T10:21:25.103Z,61.25
2022-08-22T10:22:29.942Z,61.43
2022-08-22T10:23:26.109Z,61.49
2022-08-22T10:24:25.702Z,62.43
2022-08-22T10:25:25.109Z,61.65
2022-08-22T10:26:25.642Z,62.40
2022-08-22T10:27:25.043Z,62.45
2022-08-22T10:28:25.080Z,64.30
2022-08-22T10:29:25.023Z,65.06
2022-08-22T10:30:25.015Z,65.52
2022-08-22T10:31:25.001Z,64.21
2022-08-22T10:32:26.948Z,64.52
2022-08-22T10:33:25.021Z,64.48
2022-08-22T10:34:24.980Z,65.24
2022-08-22T10:35:25.585Z,66.18
2022-08-22T10:36:26.270Z,64.07
2022-08-22T10:37:24.954Z,62.45
2022-08-22T10:38:25.070Z,63.02
2022-08-22T10:39:24.953Z,61.68
2022-08-22T10:40:24.962Z,61.08
2022-08-22T10:41:24.915Z,63.39
2022-08-22T10:42:24.909Z,62.24
2022-08-22T10:43:29.161Z,62.78
2022-08-22T10:44:24.914Z,63.66
2022-08-22T10:45:36.177Z,63.93
2022-08-22T10:46:25.870Z,63.29
2022-08-22T10:47:24.861Z,62.58
2022-08-22T10:48:24.942Z,62.67
2022-08-22T10:49:28.301Z,62.98
2022-08-22T10:50:24.826Z,62.49
2022-08-22T10:51:25.824Z,62.84
2022-08-22T10:52:24.809Z,64.74
2022-08-22T10:53:29.466Z,63.04
2022-08-22T10:54:25.835Z,61.20
2022-08-22T10:55:24.785Z,61.57
2022-08-22T10:56:24.778Z,60.91
2022-08-22T10:57:24.770Z,59.64
2022-08-22T10:58:24.796Z,61.59
2022-08-22T10:59:24.765Z,58.95
2022-08-22T11:00:25.612Z,58.71
2022-08-22T11:01:38.462Z,59.96
2022-08-22T11:02:25.827Z,59.95
2022-08-22T11:03:24.999Z,58.67
2022-08-22T11:04:28.276Z,58.05
2022-08-22T11:05:24.709Z,58.96
2022-08-22T11:06:24.679Z,60.76
2022-08-22T11:07:25.672Z,61.96
2022-08-22T11:08:24.669Z,61.54
2022-08-22T11:09:24.674Z,62.19
2022-08-22T11:10:24.669Z,63.80
2022-08-22T11:11:24.636Z,65.69
2022-08-22T11:12:28.211Z,62.83
2022-08-22T11:13:25.619Z,62.53
2022-08-22T11:14:24.623Z,59.40
2022-08-22T11:15:34.510Z,61.53
2022-08-22T11:16:25.595Z,59.03
2022-08-22T11:17:30.252Z,60.46
2022-08-22T11:18:25.572Z,59.89
2022-08-22T11:19:24.644Z,59.10
2022-08-22T11:20:24.578Z,59.63
2022-08-22T11:21:24.544Z,60.49
2022-08-22T11:22:24.536Z,60.28
2022-08-22T11:23:24.524Z,59.36
2022-08-22T11:24:35.480Z,58.53
2022-08-22T11:25:29.227Z,59.75
2022-08-22T11:26:30.108Z,59.69
2022-08-22T11:27:34.523Z,60.68
2022-08-22T11:28:25.507Z,59.12
2022-08-22T11:29:24.488Z,60.02
2022-08-22T11:30:25.846Z,62.06
2022-08-22T11:31:24.533Z,61.50
2022-08-22T11:32:24.445Z,61.81
2022-08-22T11:33:37.429Z,60.22
2022-08-22T11:34:25.643Z,58.98
2022-08-22T11:35:24.416Z,63.25
2022-08-22T11:36:26.331Z,64.79
2022-08-22T11:37:42.839Z,65.83
2022-08-22T11:38:32.658Z,66.47
2022-08-22T11:39:26.411Z,63.64
2022-08-22T11:40:24.432Z,64.13
2022-08-22T11:41:24.365Z,65.73
2022-08-22T11:42:24.352Z,64.80
2022-08-22T11:43:25.351Z,65.40
2022-08-22T11:44:25.501Z,66.23
2022-08-22T11:45:24.368Z,66.02
2022-08-22T11:46:24.325Z,64.57
2022-08-22T11:47:27.297Z,63.78
2022-08-22T11:48:24.305Z,66.07
2022-08-22T11:49:25.566Z,67.09
2022-08-22T11:50:24.311Z,64.89
2022-08-22T11:51:24.807Z,65.10
2022-08-22T11:52:24.273Z,67.42
2022-08-22T11:53:24.272Z,65.85
2022-08-22T11:54:30.863Z,65.52
2022-08-22T11:55:29.610Z,64.32
2022-08-22T11:56:25.233Z,65.40
2022-08-22T11:57:24.226Z,64.96
2022-08-22T11:58:28.729Z,67.42
2022-08-22T11:59:25.217Z,63.87
2022-08-22T12:00:24.199Z,64.43
2022-08-22T12:01:24.224Z,66.31
2022-08-22T12:02:24.199Z,65.71
2022-08-22T12:03:24.171Z,63.64
2022-08-22T12:04:24.162Z,65.02
2022-08-22T12:05:24.616Z,63.64
2022-08-22T12:06:24.194Z,62.98
2022-08-22T12:07:24.142Z,62.66
2022-08-22T12:08:24.121Z,61.43
2022-08-22T12:09:24.118Z,63.62
2022-08-22T12:10:24.109Z,63.76
2022-08-22T12:11:24.162Z,63.70
2022-08-22T12:12:24.090Z,63.79
2022-08-22T12:13:34.133Z,63.97
2022-08-22T12:14:27.037Z,65.28
2022-08-22T12:15:24.515Z,65.91
2022-08-22T12:16:24.057Z,65.85
2022-08-22T12:17:51.103Z,66.96
2022-08-22T12:18:25.149Z,68.64
2022-08-22T12:19:24.023Z,69.54
2022-08-22T12:20:24.009Z,68.81
2022-08-22T12:21:24.003Z,68.63
2022-08-22T12:22:24.010Z,66.77
2022-08-22T12:23:23.981Z,64.56
2022-08-22T12:24:24.994Z,67.49
2022-08-22T12:25:23.971Z,67.35
2022-08-22T12:26:23.958Z,66.51
2022-08-22T12:27:29.210Z,68.28
2022-08-22T12:28:24.942Z,65.69
2022-08-22T12:29:33.497Z,66.05
2022-08-22T12:30:24.925Z,68.69
2022-08-22T12:31:23.909Z,65.69
2022-08-22T12:32:27.869Z,66.64
2022-08-22T12:33:23.893Z,67.87
2022-08-22T12:34:23.885Z,66.82
2022-08-22T12:35:30.085Z,67.44
2022-08-22T12:36:24.865Z,66.61
2022-08-22T12:37:23.897Z,63.47
2022-08-22T12:38:28.148Z,65.88
2022-08-22T12:39:24.862Z,64.84
2022-08-22T12:40:26.332Z,67.16
2022-08-22T12:41:27.745Z,67.08
2022-08-22T12:42:24.893Z,63.74
2022-08-22T12:43:23.803Z,64.47
2022-08-22T12:44:23.791Z,63.09
2022-08-22T12:45:23.784Z,65.44
2022-08-22T12:46:23.775Z,65.77
2022-08-22T12:47:23.791Z,67.47
2022-08-22T12:48:23.803Z,65.86
2022-08-22T12:49:23.749Z,67.85